createdAt,value
2023-02-24T00:02:06.263Z,6.90
2023-02-24T00:04:41.245Z,9.60
2023-02-24T00:07:11.143Z,12.83
2023-02-24T00:09:41.350Z,9.80
2023-02-24T00:12:13.326Z,10.80
2023-02-24T00:14:45.201Z,11.07
2023-02-24T00:17:15.045Z,7.13
2023-02-24T00:19:42.474Z,11.03
2023-02-24T00:22:13.248Z,12.27
2023-02-24T00:24:40.251Z,6.53
2023-02-24T00:27:11.960Z,5.37
2023-02-24T00:29:41.972Z,15.73
2023-02-24T00:32:14.811Z,18.87
2023-02-24T00:34:43.155Z,7.60
2023-02-24T00:37:15.414Z,5.60
2023-02-24T00:39:44.246Z,11.00
2023-02-24T00:42:15.849Z,14.63
2023-02-24T00:44:48.676Z,5.90
2023-02-24T00:47:19.703Z,10.30
2023-02-24T00:49:50.369Z,7.50
2023-02-24T00:52:22.172Z,7.13
2023-02-24T00:54:54.220Z,4.63
2023-02-24T00:57:23.474Z,8.23
2023-02-24T00:59:52.609Z,10.60
2023-02-24T01:02:20.548Z,15.93
2023-02-24T01:04:49.868Z,11.27
2023-02-24T01:07:19.605Z,7.47
2023-02-24T01:09:50.501Z,6.50
2023-02-24T01:12:35.829Z,12.73
2023-02-24T01:15:03.156Z,20.20
2023-02-24T01:17:35.915Z,7.50
2023-02-24T01:20:15.892Z,8.40
2023-02-24T01:22:53.527Z,6.67
2023-02-24T01:25:20.628Z,10.60
2023-02-24T01:27:50.651Z,13.60
2023-02-24T01:30:18.525Z,16.37
2023-02-24T01:32:47.072Z,16.17
2023-02-24T01:35:14.660Z,9.07
2023-02-24T01:37:46.049Z,23.53
2023-02-24T01:40:18.664Z,9.97
2023-02-24T01:42:47.740Z,17.23
2023-02-24T01:45:21.864Z,5.80
2023-02-24T01:47:50.838Z,10.90
2023-02-24T01:50:21.986Z,6.43
2023-02-24T01:52:51.980Z,9.80
2023-02-24T01:55:28.934Z,7.90
2023-02-24T01:58:00.959Z,3.20
2023-02-24T02:00:45.087Z,6.77
2023-02-24T02:03:30.058Z,15.20
2023-02-24T02:06:13.075Z,8.27
2023-02-24T02:08:42.413Z,9.93
2023-02-24T02:11:21.486Z,14.10
2023-02-24T02:13:51.685Z,8.27
2023-02-24T02:16:47.197Z,6.83
2023-02-24T02:19:13.989Z,2.53
2023-02-24T02:22:02.425Z,5.57
2023-02-24T02:24:48.460Z,11.60
2023-02-24T02:27:36.940Z,17.17
2023-02-24T02:30:43.835Z,9.67
2023-02-24T02:33:31.270Z,9.80
2023-02-24T02:36:14.032Z,13.40
2023-02-24T02:38:53.239Z,19.97
2023-02-24T02:42:16.598Z,13.03
2023-02-24T02:45:14.500Z,6.13
2023-02-24T02:48:02.397Z,13.83
2023-02-24T02:50:43.508Z,10.90
2023-02-24T02:53:32.751Z,5.23
2023-02-24T02:56:31.911Z,12.17
2023-02-24T02:59:04.629Z,10.37
2023-02-24T03:01:41.614Z,7.90
2023-02-24T03:04:17.612Z,4.37
2023-02-24T03:06:53.174Z,9.20
2023-02-24T03:09:38.801Z,6.17
2023-02-24T03:12:11.710Z,4.83
2023-02-24T03:14:51.162Z,9.30
2023-02-24T03:17:30.684Z,9.50
2023-02-24T03:20:13.371Z,12.77
2023-02-24T03:23:08.148Z,1.70
2023-02-24T03:25:50.388Z,11.53
2023-02-24T03:28:37.548Z,5.93
2023-02-24T03:31:19.293Z,5.73
2023-02-24T03:34:05.487Z,10.60
2023-02-24T03:36:34.958Z,6.93
2023-02-24T03:39:02.684Z,3.73
2023-02-24T03:41:46.190Z,3.80
2023-02-24T03:44:14.706Z,6.90
2023-02-24T03:46:42.663Z,5.80
2023-02-24T03:49:12.967Z,3.40
2023-02-24T03:51:44.839Z,8.10
2023-02-24T03:54:54.399Z,5.70
2023-02-24T03:58:04.738Z,12.50
2023-02-24T04:00:41.431Z,2.60
2023-02-24T04:03:19.940Z,9.30
2023-02-24T04:06:14.249Z,7.03
2023-02-24T04:09:21.820Z,3.47
2023-02-24T04:12:18.919Z,10.50
2023-02-24T04:15:23.831Z,4.30
2023-02-24T04:18:22.776Z,9.57
2023-02-24T04:20:53.640Z,5.83
2023-02-24T04:23:27.296Z,3.70
2023-02-24T04:25:57.188Z,5.03
2023-02-24T04:28:25.949Z,10.00
2023-02-24T04:31:10.813Z,10.03
2023-02-24T04:33:43.114Z,2.93
2023-02-24T04:36:13.025Z,10.90
2023-02-24T04:38:40.557Z,10.40
2023-02-24T04:41:09.985Z,5.90
2023-02-24T04:43:46.236Z,7.43
2023-02-24T04:46:13.328Z,1.60
2023-02-24T04:48:40.364Z,5.30
2023-02-24T04:51:07.306Z,6.23
2023-02-24T04:53:34.321Z,1.10
2023-02-24T04:56:09.119Z,14.20
2023-02-24T04:58:46.473Z,10.67
2023-02-24T05:01:15.683Z,2.93
2023-02-24T05:03:45.806Z,6.43
2023-02-24T05:06:20.533Z,6.40
2023-02-24T05:08:47.477Z,6.53
2023-02-24T05:11:16.641Z,9.50
2023-02-24T05:13:46.948Z,15.93
2023-02-24T05:16:17.007Z,5.73
2023-02-24T05:18:46.482Z,5.03
2023-02-24T05:21:35.687Z,18.23
2023-02-24T05:24:08.390Z,7.40
2023-02-24T05:26:41.875Z,12.07
2023-02-24T05:29:11.048Z,4.87
2023-02-24T05:31:38.316Z,11.07
2023-02-24T05:34:08.245Z,7.53
2023-02-24T05:36:45.923Z,10.37
2023-02-24T05:39:19.290Z,6.03
2023-02-24T05:41:49.051Z,8.27
2023-02-24T05:44:23.508Z,5.17
2023-02-24T05:46:58.235Z,5.37
2023-02-24T05:49:31.460Z,6.83
2023-02-24T05:52:08.704Z,5.70
2023-02-24T05:54:39.977Z,5.70
2023-02-24T05:57:20.937Z,3.23
2023-02-24T05:59:51.556Z,3.70
2023-02-24T06:02:27.605Z,28.70
2023-02-24T06:04:55.705Z,6.43
2023-02-24T06:07:28.405Z,4.80
2023-02-24T06:09:58.214Z,3.77
2023-02-24T06:12:29.240Z,4.30
2023-02-24T06:14:58.141Z,8.47
2023-02-24T06:17:29.879Z,11.73
2023-02-24T06:19:56.844Z,5.00
2023-02-24T06:22:26.758Z,6.80
2023-02-24T06:24:56.936Z,6.03
2023-02-24T06:27:27.158Z,6.53
2023-02-24T06:29:59.606Z,10.47
2023-02-24T06:32:26.936Z,2.57
2023-02-24T06:34:57.445Z,8.67
2023-02-24T06:37:24.885Z,8.20
2023-02-24T06:39:53.928Z,10.13
2023-02-24T06:42:21.010Z,6.77
2023-02-24T06:44:48.861Z,12.47
2023-02-24T06:47:18.137Z,3.13
2023-02-24T06:49:45.207Z,4.33
2023-02-24T06:52:19.034Z,4.23
2023-02-24T06:54:53.295Z,12.53
2023-02-24T06:57:24.779Z,15.13
2023-02-24T06:59:56.159Z,15.67
2023-02-24T07:02:26.741Z,16.47
2023-02-24T07:04:58.875Z,7.10
2023-02-24T07:07:29.143Z,11.37
2023-02-24T07:09:58.964Z,4.20
2023-02-24T07:12:26.447Z,13.53
2023-02-24T07:14:58.963Z,12.07
2023-02-24T07:17:26.468Z,5.57
2023-02-24T07:19:57.969Z,6.23
2023-02-24T07:22:25.629Z,8.50
2023-02-24T07:25:00.398Z,10.77
2023-02-24T07:27:30.181Z,7.93
2023-02-24T07:29:59.194Z,7.03
2023-02-24T07:32:26.273Z,8.03
2023-02-24T07:34:55.767Z,9.00
2023-02-24T07:37:24.396Z,12.67
2023-02-24T07:39:52.087Z,5.20
2023-02-24T07:42:22.517Z,12.90
2023-02-24T07:44:50.860Z,6.37
2023-02-24T07:47:17.904Z,5.40
2023-02-24T07:49:51.288Z,6.30
2023-02-24T07:52:21.402Z,8.23
2023-02-24T07:54:49.713Z,8.23
2023-02-24T07:57:19.199Z,7.03
2023-02-24T07:59:48.626Z,3.03
2023-02-24T08:02:18.503Z,3.83
2023-02-24T08:04:51.521Z,5.07
2023-02-24T08:07:24.824Z,12.23
2023-02-24T08:10:14.623Z,10.77
2023-02-24T08:12:43.008Z,5.03
2023-02-24T08:15:17.495Z,9.50
2023-02-24T08:17:47.670Z,7.20
2023-02-24T08:20:15.188Z,7.60
2023-02-24T08:22:46.634Z,6.50
2023-02-24T08:25:22.663Z,7.80
2023-02-24T08:28:12.153Z,12.07
2023-02-24T08:30:47.690Z,5.93
2023-02-24T08:33:21.585Z,11.63
2023-02-24T08:36:04.453Z,5.23
2023-02-24T08:38:40.468Z,6.83
2023-02-24T08:41:18.259Z,10.07
2023-02-24T08:43:46.655Z,6.83
2023-02-24T08:46:18.494Z,7.03
2023-02-24T08:48:55.784Z,6.07
2023-02-24T08:51:37.023Z,5.33
2023-02-24T08:54:11.035Z,5.43
2023-02-24T08:56:49.101Z,9.40
2023-02-24T08:59:29.598Z,6.23
2023-02-24T09:02:31.318Z,5.60
2023-02-24T09:05:05.530Z,7.27
2023-02-24T09:07:38.749Z,5.07
2023-02-24T09:10:20.375Z,4.50
2023-02-24T09:12:53.586Z,4.40
2023-02-24T09:15:25.622Z,4.13
2023-02-24T09:18:01.369Z,4.40
2023-02-24T09:20:50.556Z,4.40
2023-02-24T09:23:20.746Z,7.53
2023-02-24T09:25:54.476Z,2.90
2023-02-24T09:28:26.745Z,6.30
2023-02-24T09:31:00.261Z,3.80
2023-02-24T09:33:42.404Z,3.60
2023-02-24T09:36:27.895Z,3.37
2023-02-24T09:38:59.274Z,3.20
2023-02-24T09:42:02.643Z,3.23
2023-02-24T09:44:41.198Z,3.30
2023-02-24T09:47:39.845Z,2.93
2023-02-24T09:50:55.519Z,2.90
2023-02-24T09:53:20.713Z,2.40
2023-02-24T09:56:26.468Z,2.23
2023-02-24T09:59:30.301Z,5.03
2023-02-24T10:02:44.198Z,2.47
2023-02-24T10:05:27.890Z,2.10
2023-02-24T10:08:00.880Z,2.67
2023-02-24T10:10:36.326Z,1.80
2023-02-24T10:13:15.323Z,1.80
2023-02-24T10:15:59.315Z,1.70
2023-02-24T10:18:45.905Z,1.50
2023-02-24T10:21:30.763Z,1.90
2023-02-24T10:24:03.221Z,1.60
2023-02-24T10:26:51.287Z,1.87
2023-02-24T10:29:44.829Z,2.17
2023-02-24T10:32:34.080Z,1.63
2023-02-24T10:35:06.301Z,1.57
2023-02-24T10:37:34.234Z,8.63
2023-02-24T10:40:09.934Z,1.50
2023-02-24T10:42:45.991Z,1.50
2023-02-24T10:45:26.218Z,1.80
2023-02-24T10:47:59.492Z,2.03
2023-02-24T10:50:34.807Z,1.87
2023-02-24T10:53:29.794Z,1.60
2023-02-24T10:56:27.910Z,1.80
2023-02-24T10:59:24.708Z,2.53
2023-02-24T11:01:59.093Z,2.10
2023-02-24T11:05:04.630Z,1.80
2023-02-24T11:07:45.298Z,2.50
2023-02-24T11:10:33.100Z,2.40
2023-02-24T11:13:20.339Z,2.33
2023-02-24T11:16:14.088Z,2.83
2023-02-24T11:18:50.223Z,2.27
2023-02-24T11:21:18.184Z,2.60
2023-02-24T11:24:06.215Z,2.87
2023-02-24T11:26:41.288Z,2.73
2023-02-24T11:29:31.420Z,2.77
2023-02-24T11:32:55.931Z,3.30
2023-02-24T11:35:41.897Z,3.20
2023-02-24T11:38:27.953Z,2.80
2023-02-24T11:41:41.816Z,2.97
2023-02-24T11:44:31.478Z,2.87
2023-02-24T11:47:07.745Z,2.73
2023-02-24T11:50:24.612Z,3.20
2023-02-24T11:52:54.749Z,2.50
2023-02-24T11:55:36.143Z,3.10
2023-02-24T11:58:38.125Z,3.33
2023-02-24T12:01:19.667Z,2.80
2023-02-24T12:04:06.967Z,3.03
2023-02-24T12:06:44.084Z,3.23
2023-02-24T12:09:20.454Z,3.10
2023-02-24T12:12:20.128Z,3.80
2023-02-24T12:14:57.357Z,4.13
2023-02-24T12:17:49.495Z,4.60
2023-02-24T12:20:30.609Z,4.17
2023-02-24T12:23:15.666Z,5.47
2023-02-24T12:26:13.438Z,4.80
2023-02-24T12:29:01.641Z,5.60
2023-02-24T12:31:53.456Z,5.20
2023-02-24T12:34:50.132Z,5.80
2023-02-24T12:37:24.479Z,5.63
2023-02-24T12:40:15.942Z,5.97
2023-02-24T12:42:50.947Z,9.20
2023-02-24T12:45:46.254Z,8.00
2023-02-24T12:49:00.179Z,6.00
2023-02-24T12:51:45.886Z,5.77
2023-02-24T12:54:54.516Z,7.30
2023-02-24T12:58:02.616Z,6.63
2023-02-24T13:01:00.097Z,8.90
2023-02-24T13:03:54.849Z,6.67
2023-02-24T13:07:01.436Z,6.37
2023-02-24T13:09:45.251Z,6.10
2023-02-24T13:12:20.967Z,5.77
2023-02-24T13:14:48.477Z,7.43
2023-02-24T13:17:20.043Z,5.47
2023-02-24T13:19:48.668Z,10.93
2023-02-24T13:22:18.755Z,5.17
2023-02-24T13:24:56.666Z,5.73
2023-02-24T13:27:29.384Z,6.50
2023-02-24T13:30:01.139Z,6.03
2023-02-24T13:32:32.365Z,4.67
2023-02-24T13:35:16.386Z,6.03
2023-02-24T13:37:47.267Z,6.30
2023-02-24T13:40:22.367Z,5.13
2023-02-24T13:43:01.457Z,5.10
2023-02-24T13:45:39.778Z,5.50
2023-02-24T13:48:45.513Z,9.53
2023-02-24T13:51:12.364Z,4.37
2023-02-24T13:54:16.609Z,5.57
2023-02-24T13:56:52.689Z,4.50
2023-02-24T14:00:12.174Z,4.97
2023-02-24T14:02:44.209Z,4.53
2023-02-24T14:05:30.135Z,4.00
2023-02-24T14:07:57.964Z,4.17
2023-02-24T14:10:29.264Z,3.77
2023-02-24T14:13:19.353Z,4.97
2023-02-24T14:15:47.666Z,5.60
2023-02-24T14:18:26.659Z,5.20
2023-02-24T14:20:56.261Z,4.67
2023-02-24T14:23:35.417Z,4.83
2023-02-24T14:26:08.353Z,4.80
2023-02-24T14:28:39.685Z,6.43
2023-02-24T14:31:15.040Z,4.77
2023-02-24T14:33:48.275Z,7.47
2023-02-24T14:36:21.345Z,5.47
2023-02-24T14:39:12.410Z,9.50
2023-02-24T14:41:42.048Z,7.37
2023-02-24T14:44:24.184Z,4.90
2023-02-24T14:46:57.401Z,6.00
2023-02-24T14:49:28.351Z,12.90
2023-02-24T14:52:28.754Z,8.63
2023-02-24T14:55:02.104Z,9.63
2023-02-24T14:57:35.108Z,16.40
2023-02-24T15:00:26.639Z,15.07
2023-02-24T15:03:32.074Z,6.70
2023-02-24T15:06:07.032Z,10.40
2023-02-24T15:08:48.774Z,7.23
2023-02-24T15:11:15.702Z,10.20
2023-02-24T15:13:53.099Z,12.40
2023-02-24T15:16:24.452Z,15.77
2023-02-24T15:18:55.692Z,12.90
2023-02-24T15:21:31.693Z,12.20
2023-02-24T15:24:18.999Z,7.37
2023-02-24T15:27:01.511Z,12.00
2023-02-24T15:29:31.196Z,10.43
2023-02-24T15:32:00.878Z,7.53
2023-02-24T15:34:36.076Z,10.60
2023-02-24T15:37:15.729Z,7.40
2023-02-24T15:39:44.480Z,12.13
2023-02-24T15:42:33.577Z,10.63
2023-02-24T15:45:03.529Z,7.70
2023-02-24T15:47:43.775Z,8.50
2023-02-24T15:50:12.832Z,9.80
2023-02-24T15:52:41.502Z,6.97
2023-02-24T15:55:15.271Z,8.57
2023-02-24T15:57:42.879Z,8.20
2023-02-24T16:00:17.946Z,20.00
2023-02-24T16:02:45.617Z,17.67
2023-02-24T16:05:16.710Z,7.57
2023-02-24T16:07:48.920Z,18.53
2023-02-24T16:10:24.812Z,12.60
2023-02-24T16:12:56.192Z,11.40
2023-02-24T16:15:31.078Z,8.90
2023-02-24T16:18:02.298Z,12.80
2023-02-24T16:20:31.777Z,10.03
2023-02-24T16:23:04.271Z,6.03
2023-02-24T16:25:40.606Z,13.57
2023-02-24T16:28:13.442Z,9.87
2023-02-24T16:30:40.583Z,10.30
2023-02-24T16:33:13.569Z,12.47
2023-02-24T16:35:44.738Z,9.33
2023-02-24T16:38:15.176Z,8.37
2023-02-24T16:40:47.062Z,4.97
2023-02-24T16:43:18.771Z,15.60
2023-02-24T16:45:46.357Z,7.93
2023-02-24T16:48:24.316Z,15.30
2023-02-24T16:50:51.674Z,7.17
2023-02-24T16:53:22.808Z,12.67
2023-02-24T16:55:52.978Z,4.50
2023-02-24T16:58:23.568Z,5.93
2023-02-24T17:00:53.691Z,7.70
2023-02-24T17:03:29.940Z,10.80
2023-02-24T17:05:59.268Z,5.60
2023-02-24T17:08:31.172Z,7.33
2023-02-24T17:11:00.751Z,5.90
2023-02-24T17:13:27.734Z,5.23
2023-02-24T17:15:58.034Z,6.63
2023-02-24T17:18:28.117Z,6.33
2023-02-24T17:20:57.641Z,10.20
2023-02-24T17:23:27.621Z,2.20
2023-02-24T17:26:03.626Z,10.90
2023-02-24T17:28:33.565Z,11.13
2023-02-24T17:31:00.646Z,14.57
2023-02-24T17:33:28.794Z,9.23
2023-02-24T17:35:55.870Z,7.87
2023-02-24T17:38:27.476Z,3.90
2023-02-24T17:40:57.526Z,5.80
2023-02-24T17:43:27.149Z,8.67
2023-02-24T17:45:54.853Z,6.63
2023-02-24T17:48:24.862Z,10.73
2023-02-24T17:50:52.149Z,8.33
2023-02-24T17:53:21.647Z,10.43
2023-02-24T17:56:02.344Z,7.60
2023-02-24T17:58:33.363Z,16.63
2023-02-24T18:01:05.645Z,7.00
2023-02-24T18:03:37.284Z,12.17
2023-02-24T18:06:12.093Z,16.67
2023-02-24T18:08:42.345Z,7.50
2023-02-24T18:11:14.374Z,23.13
2023-02-24T18:13:41.462Z,26.00
2023-02-24T18:16:14.532Z,20.63
2023-02-24T18:18:41.604Z,16.90
2023-02-24T18:21:11.141Z,18.87
2023-02-24T18:23:41.321Z,19.20
2023-02-24T18:26:11.777Z,19.30
2023-02-24T18:28:39.123Z,43.60
2023-02-24T18:31:18.874Z,23.87
2023-02-24T18:33:46.293Z,22.03
2023-02-24T18:36:15.200Z,26.13
2023-02-24T18:38:42.521Z,27.53
2023-02-24T18:41:23.546Z,32.40
2023-02-24T18:43:56.014Z,23.90
2023-02-24T18:46:24.929Z,24.80
2023-02-24T18:48:59.008Z,27.33
2023-02-24T18:51:29.319Z,24.07
2023-02-24T18:54:01.555Z,30.60
2023-02-24T18:56:31.213Z,30.23
2023-02-24T18:59:02.500Z,32.70
2023-02-24T19:01:32.670Z,37.43
2023-02-24T19:04:00.791Z,24.63
2023-02-24T19:06:30.978Z,29.17
2023-02-24T19:09:00.292Z,23.70
2023-02-24T19:11:29.820Z,21.17
2023-02-24T19:13:58.373Z,13.73
2023-02-24T19:16:26.040Z,25.60
2023-02-24T19:18:56.461Z,32.73
2023-02-24T19:21:24.841Z,18.60
2023-02-24T19:23:54.486Z,21.33
2023-02-24T19:26:30.004Z,25.03
2023-02-24T19:28:58.680Z,34.10
2023-02-24T19:31:29.236Z,37.13
2023-02-24T19:34:05.344Z,23.20
2023-02-24T19:36:34.934Z,21.37
2023-02-24T19:39:05.839Z,29.20
2023-02-24T19:41:38.511Z,26.83
2023-02-24T19:44:07.619Z,33.67
2023-02-24T19:46:36.344Z,32.97
2023-02-24T19:49:04.354Z,30.53
2023-02-24T19:51:31.403Z,25.63
2023-02-24T19:54:03.302Z,32.63
2023-02-24T19:56:35.346Z,32.67
2023-02-24T19:59:05.514Z,27.30
2023-02-24T20:01:32.780Z,31.50
2023-02-24T20:04:02.917Z,16.20
2023-02-24T20:06:43.026Z,32.20
2023-02-24T20:09:17.233Z,23.17
2023-02-24T20:11:45.779Z,25.43
2023-02-24T20:14:17.555Z,21.23
2023-02-24T20:16:47.864Z,29.27
2023-02-24T20:19:15.537Z,24.23
2023-02-24T20:21:49.966Z,38.60
2023-02-24T20:24:20.781Z,26.73
2023-02-24T20:26:52.441Z,23.33
2023-02-24T20:29:25.065Z,38.80
2023-02-24T20:31:52.646Z,29.13
2023-02-24T20:34:22.462Z,30.07
2023-02-24T20:36:49.561Z,42.07
2023-02-24T20:39:19.751Z,26.93
2023-02-24T20:41:51.894Z,38.77
2023-02-24T20:44:19.072Z,48.20
2023-02-24T20:46:46.428Z,33.03
2023-02-24T20:49:17.545Z,25.50
2023-02-24T20:51:47.477Z,25.20
2023-02-24T20:54:19.350Z,21.07
2023-02-24T20:56:48.822Z,34.13
2023-02-24T20:59:22.121Z,19.30
2023-02-24T21:01:50.927Z,26.13
2023-02-24T21:04:20.931Z,24.13
2023-02-24T21:06:54.332Z,20.80
2023-02-24T21:09:21.276Z,26.07
2023-02-24T21:11:50.848Z,29.83
2023-02-24T21:14:17.880Z,27.03
2023-02-24T21:16:47.159Z,28.20
2023-02-24T21:19:14.070Z,20.70
2023-02-24T21:21:40.953Z,20.10
2023-02-24T21:24:08.438Z,18.13
2023-02-24T21:26:35.534Z,8.90
2023-02-24T21:29:02.768Z,9.90
2023-02-24T21:31:29.881Z,14.13
2023-02-24T21:33:57.035Z,10.80
2023-02-24T21:36:26.206Z,13.03
2023-02-24T21:38:54.107Z,30.97
2023-02-24T21:41:22.103Z,18.90
2023-02-24T21:43:55.328Z,30.03
2023-02-24T21:46:28.221Z,15.90
2023-02-24T21:48:57.696Z,20.73
2023-02-24T21:51:26.893Z,15.47
2023-02-24T21:53:57.286Z,20.47
2023-02-24T21:56:30.460Z,7.60
2023-02-24T21:59:03.879Z,30.33
2023-02-24T22:01:37.197Z,21.27
2023-02-24T22:04:10.415Z,21.20
2023-02-24T22:06:39.776Z,19.27
2023-02-24T22:09:10.235Z,20.63
2023-02-24T22:11:43.137Z,23.53
2023-02-24T22:14:12.543Z,18.60
2023-02-24T22:16:40.651Z,18.97
2023-02-24T22:19:07.896Z,20.70
2023-02-24T22:21:34.937Z,25.27
2023-02-24T22:24:04.008Z,20.27
2023-02-24T22:26:33.987Z,10.57
2023-02-24T22:29:04.884Z,14.97
2023-02-24T22:31:34.483Z,19.43
2023-02-24T22:34:01.839Z,20.23
2023-02-24T22:36:33.609Z,7.83
2023-02-24T22:39:01.863Z,7.90
2023-02-24T22:41:33.391Z,14.20
2023-02-24T22:44:04.488Z,5.20
2023-02-24T22:46:37.344Z,8.90
2023-02-24T22:49:05.123Z,8.13
2023-02-24T22:51:34.941Z,1.50
2023-02-24T22:54:02.049Z,2.60
2023-02-24T22:56:32.159Z,2.70
2023-02-24T22:59:00.604Z,4.67
2023-02-24T23:01:34.903Z,3.30
2023-02-24T23:04:05.885Z,1.33
2023-02-24T23:06:36.401Z,3.60
2023-02-24T23:09:06.033Z,3.03
2023-02-24T23:11:40.897Z,1.30
2023-02-24T23:14:13.505Z,3.27
2023-02-24T23:16:53.477Z,1.40
2023-02-24T23:19:23.585Z,1.37
2023-02-24T23:21:56.493Z,0.90
2023-02-24T23:24:28.189Z,1.13
2023-02-24T23:26:57.567Z,3.10
2023-02-24T23:29:26.748Z,1.03
2023-02-24T23:31:57.458Z,0.80
2023-02-24T23:34:24.967Z,3.23
2023-02-24T23:36:52.003Z,0.97
2023-02-24T23:39:23.586Z,5.43
2023-02-24T23:41:56.763Z,0.70
2023-02-24T23:44:24.061Z,3.50
2023-02-24T23:46:53.387Z,3.47
2023-02-24T23:49:22.841Z,1.57
2023-02-24T23:51:54.542Z,2.20
2023-02-24T23:54:21.559Z,4.83
2023-02-24T23:56:50.699Z,2.80
2023-02-24T23:59:17.700Z,1.70
